sensor_id;sensor_type;location;lat;lon;timestamp;temperature;humidity
19256;DHT22;9762;52.490;13.410;2022-11-04T00:01:47;13.80;95.30
19256;DHT22;9762;52.490;13.410;2022-11-04T00:04:15;13.80;95.30
19256;DHT22;9762;52.490;13.410;2022-11-04T00:06:41;13.80;95.30
19256;DHT22;9762;52.490;13.410;2022-11-04T00:09:09;13.70;95.30
19256;DHT22;9762;52.490;13.410;2022-11-04T00:11:34;13.70;95.40
19256;DHT22;9762;52.490;13.410;2022-11-04T00:14:19;13.70;95.50
19256;DHT22;9762;52.490;13.410;2022-11-04T00:16:45;13.80;95.60
19256;DHT22;9762;52.490;13.410;2022-11-04T00:19:29;13.70;95.50
19256;DHT22;9762;52.490;13.410;2022-11-04T00:22:15;13.70;95.60
19256;DHT22;9762;52.490;13.410;2022-11-04T00:25:00;13.70;95.70
19256;DHT22;9762;52.490;13.410;2022-11-04T00:27:44;13.70;95.70
19256;DHT22;9762;52.490;13.410;2022-11-04T00:30:28;13.70;95.70
19256;DHT22;9762;52.490;13.410;2022-11-04T00:32:54;13.70;95.70
19256;DHT22;9762;52.490;13.410;2022-11-04T00:35:38;13.70;95.70
19256;DHT22;9762;52.490;13.410;2022-11-04T00:38:03;13.70;95.70
19256;DHT22;9762;52.490;13.410;2022-11-04T00:40:29;13.70;95.80
19256;DHT22;9762;52.490;13.410;2022-11-04T00:42:54;13.70;95.90
19256;DHT22;9762;52.490;13.410;2022-11-04T00:45:20;13.70;96.00
19256;DHT22;9762;52.490;13.410;2022-11-04T00:47:45;13.70;96.00
19256;DHT22;9762;52.490;13.410;2022-11-04T00:50:11;13.70;96.00
19256;DHT22;9762;52.490;13.410;2022-11-04T00:52:36;13.70;96.10
19256;DHT22;9762;52.490;13.410;2022-11-04T00:55:03;13.70;96.10
19256;DHT22;9762;52.490;13.410;2022-11-04T00:57:28;13.60;96.20
19256;DHT22;9762;52.490;13.410;2022-11-04T00:59:54;13.60;96.20
19256;DHT22;9762;52.490;13.410;2022-11-04T01:02:19;13.60;96.20
19256;DHT22;9762;52.490;13.410;2022-11-04T01:04:46;13.60;96.20
19256;DHT22;9762;52.490;13.410;2022-11-04T01:07:11;13.60;96.20
19256;DHT22;9762;52.490;13.410;2022-11-04T01:09:37;13.60;96.30
19256;DHT22;9762;52.490;13.410;2022-11-04T01:12:03;13.60;96.30
19256;DHT22;9762;52.490;13.410;2022-11-04T01:14:29;13.50;96.40
19256;DHT22;9762;52.490;13.410;2022-11-04T01:16:54;13.50;96.40
19256;DHT22;9762;52.490;13.410;2022-11-04T01:19:20;13.50;96.30
19256;DHT22;9762;52.490;13.410;2022-11-04T01:21:49;13.50;96.30
19256;DHT22;9762;52.490;13.410;2022-11-04T01:24:15;13.50;96.30
19256;DHT22;9762;52.490;13.410;2022-11-04T01:26:41;13.50;96.40
19256;DHT22;9762;52.490;13.410;2022-11-04T01:29:06;13.50;96.50
19256;DHT22;9762;52.490;13.410;2022-11-04T01:31:32;13.50;96.50
19256;DHT22;9762;52.490;13.410;2022-11-04T01:33:58;13.40;96.50
19256;DHT22;9762;52.490;13.410;2022-11-04T01:36:25;13.40;96.60
19256;DHT22;9762;52.490;13.410;2022-11-04T01:38:50;13.40;96.60
19256;DHT22;9762;52.490;13.410;2022-11-04T01:41:19;13.40;97.00
19256;DHT22;9762;52.490;13.410;2022-11-04T01:46:37;13.40;96.70
19256;DHT22;9762;52.490;13.410;2022-11-04T01:49:34;13.40;96.80
19256;DHT22;9762;52.490;13.410;2022-11-04T01:52:06;13.40;96.80
19256;DHT22;9762;52.490;13.410;2022-11-04T01:54:33;13.40;96.90
19256;DHT22;9762;52.490;13.410;2022-11-04T01:57:02;13.40;96.90
19256;DHT22;9762;52.490;13.410;2022-11-04T01:59:32;13.40;96.80
19256;DHT22;9762;52.490;13.410;2022-11-04T02:01:59;13.30;96.70
19256;DHT22;9762;52.490;13.410;2022-11-04T02:04:25;13.30;96.80
19256;DHT22;9762;52.490;13.410;2022-11-04T02:06:56;13.30;97.10
19256;DHT22;9762;52.490;13.410;2022-11-04T02:09:25;13.30;97.10
19256;DHT22;9762;52.490;13.410;2022-11-04T02:11:51;13.30;97.10
19256;DHT22;9762;52.490;13.410;2022-11-04T02:14:36;13.30;97.10
19256;DHT22;9762;52.490;13.410;2022-11-04T02:22:58;13.20;97.40
19256;DHT22;9762;52.490;13.410;2022-11-04T02:28:49;13.20;97.40
19256;DHT22;9762;52.490;13.410;2022-11-04T02:31:39;13.20;97.60
19256;DHT22;9762;52.490;13.410;2022-11-04T02:34:40;13.20;97.60
19256;DHT22;9762;52.490;13.410;2022-11-04T02:40:39;13.20;97.60
19256;DHT22;9762;52.490;13.410;2022-11-04T02:43:24;13.20;97.70
19256;DHT22;9762;52.490;13.410;2022-11-04T02:45:56;13.20;97.60
19256;DHT22;9762;52.490;13.410;2022-11-04T02:48:58;13.20;97.60
19256;DHT22;9762;52.490;13.410;2022-11-04T02:51:29;13.20;97.70
19256;DHT22;9762;52.490;13.410;2022-11-04T02:54:06;13.20;97.70
19256;DHT22;9762;52.490;13.410;2022-11-04T02:56:37;13.20;97.60
19256;DHT22;9762;52.490;13.410;2022-11-04T02:59:10;13.20;97.60
19256;DHT22;9762;52.490;13.410;2022-11-04T03:01:40;13.30;97.60
19256;DHT22;9762;52.490;13.410;2022-11-04T03:04:14;13.20;97.50
19256;DHT22;9762;52.490;13.410;2022-11-04T03:06:41;13.20;97.50
19256;DHT22;9762;52.490;13.410;2022-11-04T03:09:10;13.20;97.80
19256;DHT22;9762;52.490;13.410;2022-11-04T03:11:40;13.20;97.70
19256;DHT22;9762;52.490;13.410;2022-11-04T03:14:39;13.20;97.90
19256;DHT22;9762;52.490;13.410;2022-11-04T03:17:17;13.20;98.10
19256;DHT22;9762;52.490;13.410;2022-11-04T03:19:57;13.20;98.20
19256;DHT22;9762;52.490;13.410;2022-11-04T03:22:28;13.20;98.20
19256;DHT22;9762;52.490;13.410;2022-11-04T03:24:54;13.20;98.30
19256;DHT22;9762;52.490;13.410;2022-11-04T03:27:49;13.20;98.30
19256;DHT22;9762;52.490;13.410;2022-11-04T03:30:18;13.20;98.30
19256;DHT22;9762;52.490;13.410;2022-11-04T03:33:13;13.20;98.20
19256;DHT22;9762;52.490;13.410;2022-11-04T03:35:41;13.20;98.20
19256;DHT22;9762;52.490;13.410;2022-11-04T03:38:06;13.20;98.30
19256;DHT22;9762;52.490;13.410;2022-11-04T03:40:32;13.30;98.20
19256;DHT22;9762;52.490;13.410;2022-11-04T03:43:03;13.30;98.20
19256;DHT22;9762;52.490;13.410;2022-11-04T03:45:31;13.30;98.20
19256;DHT22;9762;52.490;13.410;2022-11-04T03:47:56;13.30;98.30
19256;DHT22;9762;52.490;13.410;2022-11-04T03:50:26;13.30;98.40
19256;DHT22;9762;52.490;13.410;2022-11-04T03:52:52;13.30;98.30
19256;DHT22;9762;52.490;13.410;2022-11-04T03:55:17;13.30;98.40
19256;DHT22;9762;52.490;13.410;2022-11-04T03:57:55;13.30;98.40
19256;DHT22;9762;52.490;13.410;2022-11-04T04:00:23;13.30;98.40
19256;DHT22;9762;52.490;13.410;2022-11-04T04:05:48;13.40;98.40
19256;DHT22;9762;52.490;13.410;2022-11-04T04:13:44;13.40;98.30
19256;DHT22;9762;52.490;13.410;2022-11-04T04:16:17;13.40;98.30
19256;DHT22;9762;52.490;13.410;2022-11-04T04:18:55;13.40;98.40
19256;DHT22;9762;52.490;13.410;2022-11-04T04:21:27;13.40;98.40
19256;DHT22;9762;52.490;13.410;2022-11-04T04:23:56;13.40;98.40
19256;DHT22;9762;52.490;13.410;2022-11-04T04:26:41;13.40;98.40
19256;DHT22;9762;52.490;13.410;2022-11-04T04:29:27;13.40;98.40
19256;DHT22;9762;52.490;13.410;2022-11-04T04:31:55;13.40;98.50
19256;DHT22;9762;52.490;13.410;2022-11-04T04:34:23;13.40;98.50
19256;DHT22;9762;52.490;13.410;2022-11-04T04:37:04;13.40;98.40
19256;DHT22;9762;52.490;13.410;2022-11-04T04:39:36;13.50;98.40
19256;DHT22;9762;52.490;13.410;2022-11-04T04:42:21;13.40;98.40
19256;DHT22;9762;52.490;13.410;2022-11-04T04:45:07;13.50;98.50
19256;DHT22;9762;52.490;13.410;2022-11-04T04:47:42;13.50;98.50
19256;DHT22;9762;52.490;13.410;2022-11-04T04:50:09;13.50;98.50
19256;DHT22;9762;52.490;13.410;2022-11-04T04:52:39;13.50;98.50
19256;DHT22;9762;52.490;13.410;2022-11-04T04:55:06;13.50;98.50
19256;DHT22;9762;52.490;13.410;2022-11-04T04:57:31;13.50;98.50
19256;DHT22;9762;52.490;13.410;2022-11-04T04:59:57;13.50;98.50
19256;DHT22;9762;52.490;13.410;2022-11-04T05:02:22;13.50;98.50
19256;DHT22;9762;52.490;13.410;2022-11-04T05:04:48;13.50;98.60
19256;DHT22;9762;52.490;13.410;2022-11-04T05:07:13;13.50;98.60
19256;DHT22;9762;52.490;13.410;2022-11-04T05:09:39;13.50;98.70
19256;DHT22;9762;52.490;13.410;2022-11-04T05:12:05;13.50;98.60
19256;DHT22;9762;52.490;13.410;2022-11-04T05:14:31;13.50;98.60
19256;DHT22;9762;52.490;13.410;2022-11-04T05:16:56;13.60;98.70
19256;DHT22;9762;52.490;13.410;2022-11-04T05:19:22;13.60;98.70
19256;DHT22;9762;52.490;13.410;2022-11-04T05:21:47;13.60;98.70
19256;DHT22;9762;52.490;13.410;2022-11-04T05:24:13;13.60;98.70
19256;DHT22;9762;52.490;13.410;2022-11-04T05:26:38;13.60;98.70
19256;DHT22;9762;52.490;13.410;2022-11-04T05:29:04;13.60;98.70
19256;DHT22;9762;52.490;13.410;2022-11-04T05:31:29;13.60;98.60
19256;DHT22;9762;52.490;13.410;2022-11-04T05:33:55;13.60;98.70
19256;DHT22;9762;52.490;13.410;2022-11-04T05:36:23;13.60;98.70
19256;DHT22;9762;52.490;13.410;2022-11-04T05:38:52;13.70;98.70
19256;DHT22;9762;52.490;13.410;2022-11-04T05:41:20;13.70;98.70
19256;DHT22;9762;52.490;13.410;2022-11-04T05:43:57;13.70;98.70
19256;DHT22;9762;52.490;13.410;2022-11-04T05:46:23;13.70;98.60
19256;DHT22;9762;52.490;13.410;2022-11-04T05:48:49;13.70;98.60
19256;DHT22;9762;52.490;13.410;2022-11-04T05:51:17;13.70;98.60
19256;DHT22;9762;52.490;13.410;2022-11-04T05:53:42;13.70;98.70
19256;DHT22;9762;52.490;13.410;2022-11-04T05:56:08;13.70;98.70
19256;DHT22;9762;52.490;13.410;2022-11-04T05:58:33;13.70;98.70
19256;DHT22;9762;52.490;13.410;2022-11-04T06:03:55;13.80;98.80
19256;DHT22;9762;52.490;13.410;2022-11-04T06:06:22;13.80;98.60
19256;DHT22;9762;52.490;13.410;2022-11-04T06:08:49;13.80;98.60
19256;DHT22;9762;52.490;13.410;2022-11-04T06:11:15;13.80;98.70
19256;DHT22;9762;52.490;13.410;2022-11-04T06:13:41;13.80;99.00
19256;DHT22;9762;52.490;13.410;2022-11-04T06:16:06;13.80;99.10
19256;DHT22;9762;52.490;13.410;2022-11-04T06:18:32;13.80;99.00
19256;DHT22;9762;52.490;13.410;2022-11-04T06:23:35;13.80;98.90
19256;DHT22;9762;52.490;13.410;2022-11-04T06:26:01;13.80;99.20
19256;DHT22;9762;52.490;13.410;2022-11-04T06:28:26;13.70;99.30
19256;DHT22;9762;52.490;13.410;2022-11-04T06:30:52;13.70;99.30
19256;DHT22;9762;52.490;13.410;2022-11-04T06:33:17;13.70;99.30
19256;DHT22;9762;52.490;13.410;2022-11-04T06:35:43;13.70;99.30
19256;DHT22;9762;52.490;13.410;2022-11-04T06:38:08;13.70;99.30
19256;DHT22;9762;52.490;13.410;2022-11-04T06:40:34;13.70;99.30
19256;DHT22;9762;52.490;13.410;2022-11-04T06:42:59;13.70;99.20
19256;DHT22;9762;52.490;13.410;2022-11-04T06:45:25;13.70;99.20
19256;DHT22;9762;52.490;13.410;2022-11-04T06:47:50;13.80;99.20
19256;DHT22;9762;52.490;13.410;2022-11-04T06:50:16;13.70;99.20
19256;DHT22;9762;52.490;13.410;2022-11-04T06:52:41;13.70;99.60
19256;DHT22;9762;52.490;13.410;2022-11-04T06:55:07;13.80;99.20
19256;DHT22;9762;52.490;13.410;2022-11-04T06:57:33;13.80;99.30
19256;DHT22;9762;52.490;13.410;2022-11-04T06:59:59;13.80;99.20
19256;DHT22;9762;52.490;13.410;2022-11-04T07:02:24;13.80;99.40
19256;DHT22;9762;52.490;13.410;2022-11-04T07:04:50;13.80;99.60
19256;DHT22;9762;52.490;13.410;2022-11-04T07:07:16;13.80;99.70
19256;DHT22;9762;52.490;13.410;2022-11-04T07:09:41;13.80;99.80
19256;DHT22;9762;52.490;13.410;2022-11-04T07:12:07;13.90;99.90
19256;DHT22;9762;52.490;13.410;2022-11-04T07:14:32;13.90;99.90
19256;DHT22;9762;52.490;13.410;2022-11-04T07:16:58;13.90;99.90
19256;DHT22;9762;52.490;13.410;2022-11-04T07:19:23;14.00;99.90
19256;DHT22;9762;52.490;13.410;2022-11-04T07:21:49;14.00;99.90
19256;DHT22;9762;52.490;13.410;2022-11-04T07:24:14;14.10;99.90
19256;DHT22;9762;52.490;13.410;2022-11-04T07:26:40;14.10;99.90
19256;DHT22;9762;52.490;13.410;2022-11-04T07:29:07;14.10;99.90
19256;DHT22;9762;52.490;13.410;2022-11-04T07:31:33;14.20;99.90
19256;DHT22;9762;52.490;13.410;2022-11-04T07:33:58;14.20;99.90
19256;DHT22;9762;52.490;13.410;2022-11-04T07:36:24;14.30;99.90
19256;DHT22;9762;52.490;13.410;2022-11-04T07:38:49;14.30;99.90
19256;DHT22;9762;52.490;13.410;2022-11-04T07:41:15;14.40;99.90
19256;DHT22;9762;52.490;13.410;2022-11-04T07:43:42;14.40;99.90
19256;DHT22;9762;52.490;13.410;2022-11-04T07:46:11;14.40;99.90
19256;DHT22;9762;52.490;13.410;2022-11-04T07:48:39;14.50;99.90
19256;DHT22;9762;52.490;13.410;2022-11-04T07:51:06;14.50;99.90
19256;DHT22;9762;52.490;13.410;2022-11-04T07:53:32;14.50;99.90
19256;DHT22;9762;52.490;13.410;2022-11-04T07:56:01;14.60;99.90
19256;DHT22;9762;52.490;13.410;2022-11-04T07:58:28;14.60;99.90
19256;DHT22;9762;52.490;13.410;2022-11-04T08:01:01;14.70;99.90
19256;DHT22;9762;52.490;13.410;2022-11-04T08:03:26;14.80;99.90
19256;DHT22;9762;52.490;13.410;2022-11-04T08:06:00;14.90;99.90
19256;DHT22;9762;52.490;13.410;2022-11-04T08:08:27;14.90;99.90
19256;DHT22;9762;52.490;13.410;2022-11-04T08:10:58;15.00;99.90
19256;DHT22;9762;52.490;13.410;2022-11-04T08:13:33;15.10;99.90
19256;DHT22;9762;52.490;13.410;2022-11-04T08:16:10;15.10;99.90
19256;DHT22;9762;52.490;13.410;2022-11-04T08:18:38;15.10;99.90
19256;DHT22;9762;52.490;13.410;2022-11-04T08:21:04;15.10;99.90
19256;DHT22;9762;52.490;13.410;2022-11-04T08:23:30;15.20;99.90
19256;DHT22;9762;52.490;13.410;2022-11-04T08:25:56;15.20;99.90
19256;DHT22;9762;52.490;13.410;2022-11-04T08:28:22;15.20;99.90
19256;DHT22;9762;52.490;13.410;2022-11-04T08:30:57;15.20;99.90
19256;DHT22;9762;52.490;13.410;2022-11-04T08:33:24;15.20;99.90
19256;DHT22;9762;52.490;13.410;2022-11-04T08:35:51;15.30;99.90
19256;DHT22;9762;52.490;13.410;2022-11-04T08:38:16;15.20;99.90
19256;DHT22;9762;52.490;13.410;2022-11-04T08:40:42;15.20;99.90
19256;DHT22;9762;52.490;13.410;2022-11-04T08:43:08;15.30;99.90
19256;DHT22;9762;52.490;13.410;2022-11-04T08:45:41;15.30;99.90
19256;DHT22;9762;52.490;13.410;2022-11-04T08:48:07;15.30;99.90
19256;DHT22;9762;52.490;13.410;2022-11-04T08:50:32;15.30;99.90
19256;DHT22;9762;52.490;13.410;2022-11-04T08:52:58;15.40;99.90
19256;DHT22;9762;52.490;13.410;2022-11-04T08:55:23;15.30;99.90
19256;DHT22;9762;52.490;13.410;2022-11-04T08:57:49;15.30;99.90
19256;DHT22;9762;52.490;13.410;2022-11-04T09:00:15;15.30;99.90
19256;DHT22;9762;52.490;13.410;2022-11-04T09:02:41;15.30;99.90
19256;DHT22;9762;52.490;13.410;2022-11-04T09:05:07;15.30;99.90
19256;DHT22;9762;52.490;13.410;2022-11-04T09:07:34;15.20;99.90
19256;DHT22;9762;52.490;13.410;2022-11-04T09:10:00;15.20;99.90
19256;DHT22;9762;52.490;13.410;2022-11-04T09:12:27;15.20;99.90
19256;DHT22;9762;52.490;13.410;2022-11-04T09:14:52;15.20;99.90
19256;DHT22;9762;52.490;13.410;2022-11-04T09:17:18;15.20;99.90
19256;DHT22;9762;52.490;13.410;2022-11-04T09:19:43;15.20;99.90
19256;DHT22;9762;52.490;13.410;2022-11-04T09:22:09;15.10;99.90
19256;DHT22;9762;52.490;13.410;2022-11-04T09:24:34;15.10;99.90
19256;DHT22;9762;52.490;13.410;2022-11-04T09:27:00;15.10;99.90
19256;DHT22;9762;52.490;13.410;2022-11-04T09:29:25;15.10;99.90
19256;DHT22;9762;52.490;13.410;2022-11-04T09:31:51;15.10;99.90
19256;DHT22;9762;52.490;13.410;2022-11-04T09:34:17;15.20;99.90
19256;DHT22;9762;52.490;13.410;2022-11-04T09:36:43;15.10;99.90
19256;DHT22;9762;52.490;13.410;2022-11-04T09:39:09;15.10;99.90
19256;DHT22;9762;52.490;13.410;2022-11-04T09:41:46;15.10;99.90
19256;DHT22;9762;52.490;13.410;2022-11-04T09:44:23;15.20;99.90
19256;DHT22;9762;52.490;13.410;2022-11-04T09:46:52;15.20;99.90
19256;DHT22;9762;52.490;13.410;2022-11-04T09:49:20;15.20;99.90
19256;DHT22;9762;52.490;13.410;2022-11-04T09:51:46;15.20;99.90
19256;DHT22;9762;52.490;13.410;2022-11-04T09:54:21;15.20;99.90
19256;DHT22;9762;52.490;13.410;2022-11-04T09:56:48;15.20;99.90
19256;DHT22;9762;52.490;13.410;2022-11-04T09:59:22;15.20;99.90
19256;DHT22;9762;52.490;13.410;2022-11-04T10:01:51;15.30;99.90
19256;DHT22;9762;52.490;13.410;2022-11-04T10:04:51;15.30;99.90
19256;DHT22;9762;52.490;13.410;2022-11-04T10:10:36;15.40;99.90
19256;DHT22;9762;52.490;13.410;2022-11-04T10:24:17;15.30;99.90
19256;DHT22;9762;52.490;13.410;2022-11-04T10:26:46;15.30;99.90
19256;DHT22;9762;52.490;13.410;2022-11-04T10:29:40;15.30;99.90
19256;DHT22;9762;52.490;13.410;2022-11-04T10:32:34;15.30;99.90
19256;DHT22;9762;52.490;13.410;2022-11-04T10:37:33;15.30;99.90
19256;DHT22;9762;52.490;13.410;2022-11-04T10:40:26;15.30;99.90
19256;DHT22;9762;52.490;13.410;2022-11-04T10:42:51;15.30;99.90
19256;DHT22;9762;52.490;13.410;2022-11-04T10:45:19;15.30;99.90
19256;DHT22;9762;52.490;13.410;2022-11-04T10:47:54;15.30;99.90
19256;DHT22;9762;52.490;13.410;2022-11-04T10:50:37;15.30;99.90
19256;DHT22;9762;52.490;13.410;2022-11-04T10:53:11;15.30;99.90
19256;DHT22;9762;52.490;13.410;2022-11-04T10:55:46;15.30;99.90
19256;DHT22;9762;52.490;13.410;2022-11-04T10:58:23;15.30;99.90
19256;DHT22;9762;52.490;13.410;2022-11-04T11:00:49;15.30;99.90
19256;DHT22;9762;52.490;13.410;2022-11-04T11:03:32;15.20;99.90
19256;DHT22;9762;52.490;13.410;2022-11-04T11:09:00;15.20;99.90
19256;DHT22;9762;52.490;13.410;2022-11-04T11:11:44;15.20;99.90
19256;DHT22;9762;52.490;13.410;2022-11-04T11:16:54;15.30;99.90
19256;DHT22;9762;52.490;13.410;2022-11-04T11:19:23;15.30;99.90
19256;DHT22;9762;52.490;13.410;2022-11-04T11:21:56;15.40;99.90
19256;DHT22;9762;52.490;13.410;2022-11-04T11:24:24;15.40;99.90
19256;DHT22;9762;52.490;13.410;2022-11-04T11:26:59;15.40;99.90
19256;DHT22;9762;52.490;13.410;2022-11-04T11:29:34;15.40;99.90
19256;DHT22;9762;52.490;13.410;2022-11-04T11:32:27;15.40;99.90
19256;DHT22;9762;52.490;13.410;2022-11-04T11:34:55;15.50;99.90
19256;DHT22;9762;52.490;13.410;2022-11-04T11:37:26;15.50;99.70
19256;DHT22;9762;52.490;13.410;2022-11-04T11:39:55;15.50;99.50
19256;DHT22;9762;52.490;13.410;2022-11-04T11:42:21;15.40;99.50
19256;DHT22;9762;52.490;13.410;2022-11-04T11:44:52;15.40;99.60
19256;DHT22;9762;52.490;13.410;2022-11-04T11:47:34;15.40;99.50
19256;DHT22;9762;52.490;13.410;2022-11-04T11:52:39;15.40;99.50
19256;DHT22;9762;52.490;13.410;2022-11-04T11:58:04;15.40;99.70
19256;DHT22;9762;52.490;13.410;2022-11-04T12:00:36;15.40;99.90
19256;DHT22;9762;52.490;13.410;2022-11-04T12:06:46;15.40;99.90
19256;DHT22;9762;52.490;13.410;2022-11-04T12:25:25;15.40;99.90
19256;DHT22;9762;52.490;13.410;2022-11-04T12:33:46;15.40;99.50
19256;DHT22;9762;52.490;13.410;2022-11-04T12:42:20;15.50;99.60
19256;DHT22;9762;52.490;13.410;2022-11-04T12:47:45;15.50;99.10
19256;DHT22;9762;52.490;13.410;2022-11-04T12:50:40;15.50;99.10
19256;DHT22;9762;52.490;13.410;2022-11-04T12:53:24;15.50;98.90
19256;DHT22;9762;52.490;13.410;2022-11-04T13:01:38;15.50;99.10
19256;DHT22;9762;52.490;13.410;2022-11-04T13:11:50;15.60;98.80
19256;DHT22;9762;52.490;13.410;2022-11-04T13:14:23;15.60;98.70
19256;DHT22;9762;52.490;13.410;2022-11-04T13:16:59;15.60;99.20
19256;DHT22;9762;52.490;13.410;2022-11-04T13:19:42;15.60;98.90
19256;DHT22;9762;52.490;13.410;2022-11-04T13:22:14;15.60;98.70
19256;DHT22;9762;52.490;13.410;2022-11-04T13:24:48;15.60;98.60
19256;DHT22;9762;52.490;13.410;2022-11-04T13:27:44;15.60;98.40
19256;DHT22;9762;52.490;13.410;2022-11-04T13:33:10;15.60;98.40
19256;DHT22;9762;52.490;13.410;2022-11-04T13:38:29;15.50;98.50
19256;DHT22;9762;52.490;13.410;2022-11-04T13:41:22;15.60;98.40
19256;DHT22;9762;52.490;13.410;2022-11-04T13:43:55;15.50;98.40
19256;DHT22;9762;52.490;13.410;2022-11-04T13:46:25;15.50;98.60
19256;DHT22;9762;52.490;13.410;2022-11-04T13:49:12;15.50;98.50
19256;DHT22;9762;52.490;13.410;2022-11-04T13:51:42;15.60;98.50
19256;DHT22;9762;52.490;13.410;2022-11-04T13:55:16;15.60;98.50
19256;DHT22;9762;52.490;13.410;2022-11-04T14:02:45;15.50;98.50
19256;DHT22;9762;52.490;13.410;2022-11-04T14:18:31;15.50;99.20
19256;DHT22;9762;52.490;13.410;2022-11-04T14:23:44;15.50;99.50
19256;DHT22;9762;52.490;13.410;2022-11-04T14:26:12;15.60;99.50
19256;DHT22;9762;52.490;13.410;2022-11-04T14:28:41;15.60;99.50
19256;DHT22;9762;52.490;13.410;2022-11-04T14:31:09;15.50;99.60
19256;DHT22;9762;52.490;13.410;2022-11-04T14:33:55;15.60;99.70
19256;DHT22;9762;52.490;13.410;2022-11-04T14:36:25;15.60;99.70
19256;DHT22;9762;52.490;13.410;2022-11-04T14:41:52;15.50;99.60
19256;DHT22;9762;52.490;13.410;2022-11-04T14:44:43;15.60;99.70
19256;DHT22;9762;52.490;13.410;2022-11-04T14:47:18;15.60;99.70
19256;DHT22;9762;52.490;13.410;2022-11-04T14:52:45;15.60;99.60
19256;DHT22;9762;52.490;13.410;2022-11-04T14:55:25;15.60;99.50
19256;DHT22;9762;52.490;13.410;2022-11-04T14:57:53;15.60;99.40
19256;DHT22;9762;52.490;13.410;2022-11-04T15:05:28;15.40;99.40
19256;DHT22;9762;52.490;13.410;2022-11-04T15:07:55;15.40;99.30
19256;DHT22;9762;52.490;13.410;2022-11-04T15:10:26;15.40;99.20
19256;DHT22;9762;52.490;13.410;2022-11-04T15:12:57;15.40;99.30
19256;DHT22;9762;52.490;13.410;2022-11-04T15:15:39;15.40;99.20
19256;DHT22;9762;52.490;13.410;2022-11-04T15:18:08;15.30;99.10
19256;DHT22;9762;52.490;13.410;2022-11-04T15:20:46;15.30;99.10
19256;DHT22;9762;52.490;13.410;2022-11-04T15:23:16;15.30;99.30
19256;DHT22;9762;52.490;13.410;2022-11-04T15:25:47;15.30;99.20
19256;DHT22;9762;52.490;13.410;2022-11-04T15:28:17;15.30;99.20
19256;DHT22;9762;52.490;13.410;2022-11-04T15:34:01;15.20;99.20
19256;DHT22;9762;52.490;13.410;2022-11-04T15:36:30;15.20;99.10
19256;DHT22;9762;52.490;13.410;2022-11-04T15:39:10;15.20;99.10
19256;DHT22;9762;52.490;13.410;2022-11-04T15:41:38;15.20;99.10
19256;DHT22;9762;52.490;13.410;2022-11-04T15:44:26;15.20;99.20
19256;DHT22;9762;52.490;13.410;2022-11-04T15:46:57;15.10;99.10
19256;DHT22;9762;52.490;13.410;2022-11-04T15:49:24;15.10;99.10
19256;DHT22;9762;52.490;13.410;2022-11-04T15:51:52;15.10;99.20
19256;DHT22;9762;52.490;13.410;2022-11-04T15:54:32;15.10;99.30
19256;DHT22;9762;52.490;13.410;2022-11-04T15:57:02;15.10;99.40
19256;DHT22;9762;52.490;13.410;2022-11-04T15:59:32;15.10;99.30
19256;DHT22;9762;52.490;13.410;2022-11-04T16:02:00;15.00;99.40
19256;DHT22;9762;52.490;13.410;2022-11-04T16:04:27;15.00;99.30
19256;DHT22;9762;52.490;13.410;2022-11-04T16:09:27;14.90;99.40
19256;DHT22;9762;52.490;13.410;2022-11-04T16:12:16;14.90;99.40
19256;DHT22;9762;52.490;13.410;2022-11-04T16:14:50;14.90;99.40
19256;DHT22;9762;52.490;13.410;2022-11-04T16:17:17;14.80;99.40
19256;DHT22;9762;52.490;13.410;2022-11-04T16:19:48;14.80;99.50
19256;DHT22;9762;52.490;13.410;2022-11-04T16:22:27;14.80;99.60
19256;DHT22;9762;52.490;13.410;2022-11-04T16:24:55;14.80;99.70
19256;DHT22;9762;52.490;13.410;2022-11-04T16:27:22;14.80;99.70
19256;DHT22;9762;52.490;13.410;2022-11-04T16:32:27;14.80;99.90
19256;DHT22;9762;52.490;13.410;2022-11-04T16:34:59;14.80;99.80
19256;DHT22;9762;52.490;13.410;2022-11-04T16:37:27;14.80;99.80
19256;DHT22;9762;52.490;13.410;2022-11-04T16:39:53;14.90;99.80
19256;DHT22;9762;52.490;13.410;2022-11-04T16:42:18;14.80;99.70
19256;DHT22;9762;52.490;13.410;2022-11-04T16:44:50;14.80;99.80
19256;DHT22;9762;52.490;13.410;2022-11-04T16:47:17;14.80;99.80
19256;DHT22;9762;52.490;13.410;2022-11-04T16:49:44;14.80;99.80
19256;DHT22;9762;52.490;13.410;2022-11-04T16:52:22;14.70;99.70
19256;DHT22;9762;52.490;13.410;2022-11-04T16:54:49;14.70;99.90
19256;DHT22;9762;52.490;13.410;2022-11-04T16:57:15;14.70;99.90
19256;DHT22;9762;52.490;13.410;2022-11-04T16:59:41;14.70;99.90
19256;DHT22;9762;52.490;13.410;2022-11-04T17:02:19;14.70;99.90
19256;DHT22;9762;52.490;13.410;2022-11-04T17:04:47;14.70;99.90
19256;DHT22;9762;52.490;13.410;2022-11-04T17:07:13;14.60;99.80
19256;DHT22;9762;52.490;13.410;2022-11-04T17:09:38;14.60;99.80
19256;DHT22;9762;52.490;13.410;2022-11-04T17:12:04;14.60;99.80
19256;DHT22;9762;52.490;13.410;2022-11-04T17:14:30;14.60;99.80
19256;DHT22;9762;52.490;13.410;2022-11-04T17:16:55;14.50;99.90
19256;DHT22;9762;52.490;13.410;2022-11-04T17:19:21;14.50;99.90
19256;DHT22;9762;52.490;13.410;2022-11-04T17:21:46;14.50;99.90
19256;DHT22;9762;52.490;13.410;2022-11-04T17:24:12;14.50;99.90
19256;DHT22;9762;52.490;13.410;2022-11-04T17:26:38;14.50;99.90
19256;DHT22;9762;52.490;13.410;2022-11-04T17:29:04;14.50;99.90
19256;DHT22;9762;52.490;13.410;2022-11-04T17:31:32;14.50;99.90
19256;DHT22;9762;52.490;13.410;2022-11-04T17:34:07;14.40;99.90
19256;DHT22;9762;52.490;13.410;2022-11-04T17:36:35;14.40;99.90
19256;DHT22;9762;52.490;13.410;2022-11-04T17:39:02;14.50;99.90
19256;DHT22;9762;52.490;13.410;2022-11-04T17:41:27;14.50;99.90
19256;DHT22;9762;52.490;13.410;2022-11-04T17:44:11;14.50;99.90
19256;DHT22;9762;52.490;13.410;2022-11-04T17:46:37;14.40;99.90
19256;DHT22;9762;52.490;13.410;2022-11-04T17:49:10;14.40;99.90
19256;DHT22;9762;52.490;13.410;2022-11-04T17:51:38;14.40;99.90
19256;DHT22;9762;52.490;13.410;2022-11-04T17:54:04;14.40;99.90
19256;DHT22;9762;52.490;13.410;2022-11-04T17:56:30;14.40;99.90
19256;DHT22;9762;52.490;13.410;2022-11-04T17:59:01;14.40;99.90
19256;DHT22;9762;52.490;13.410;2022-11-04T18:01:28;14.50;99.90
19256;DHT22;9762;52.490;13.410;2022-11-04T18:03:55;14.40;99.90
19256;DHT22;9762;52.490;13.410;2022-11-04T18:06:22;14.40;99.90
19256;DHT22;9762;52.490;13.410;2022-11-04T18:08:51;14.40;99.90
19256;DHT22;9762;52.490;13.410;2022-11-04T18:11:17;14.40;99.90
19256;DHT22;9762;52.490;13.410;2022-11-04T18:14:01;14.40;99.90
19256;DHT22;9762;52.490;13.410;2022-11-04T18:16:27;14.40;99.90
19256;DHT22;9762;52.490;13.410;2022-11-04T18:18:52;14.40;99.90
19256;DHT22;9762;52.490;13.410;2022-11-04T18:21:18;14.50;99.90
19256;DHT22;9762;52.490;13.410;2022-11-04T18:23:43;14.40;99.90